createdAt,value
2018-11-20T00:00:08.350Z,1008.87
2018-11-20T00:01:09.796Z,1008.85
2018-11-20T00:02:07.691Z,1008.87
2018-11-20T00:03:10.292Z,1008.91
2018-11-20T00:04:08.803Z,1008.87
2018-11-20T00:05:07.467Z,1008.83
2018-11-20T00:06:13.302Z,1008.77
2018-11-20T00:07:12.801Z,1008.71
2018-11-20T00:08:08.792Z,1008.79
2018-11-20T00:09:08.797Z,1008.77
2018-11-20T00:10:10.798Z,1008.69
2018-11-20T00:11:08.305Z,1008.77
2018-11-20T00:12:10.299Z,1008.67
2018-11-20T00:13:07.395Z,1008.67
2018-11-20T00:14:07.293Z,1008.61
2018-11-20T00:15:09.301Z,1008.68
2018-11-20T00:16:09.295Z,1008.67
2018-11-20T00:17:07.338Z,1008.66
2018-11-20T00:18:07.360Z,1008.70
2018-11-20T00:19:07.793Z,1008.71
2018-11-20T00:20:06.818Z,1008.66
2018-11-20T00:21:06.890Z,1008.67
2018-11-20T00:22:08.795Z,1008.57
2018-11-20T00:23:06.852Z,1008.55
2018-11-20T00:25:05.708Z,1008.50
2018-11-20T00:26:05.654Z,1008.57
2018-11-20T00:27:08.831Z,1008.52
2018-11-20T00:28:08.305Z,1008.51
2018-11-20T00:29:07.295Z,1008.48
2018-11-20T00:30:06.300Z,1008.52
2018-11-20T00:31:09.296Z,1008.52
2018-11-20T00:32:10.298Z,1008.47
2018-11-20T00:33:04.991Z,1008.46
2018-11-20T00:34:07.295Z,1008.43
2018-11-20T00:35:08.311Z,1008.45
2018-11-20T00:36:04.779Z,1008.47
2018-11-20T00:37:08.795Z,1008.49
2018-11-20T00:38:09.305Z,1008.46
2018-11-20T00:39:04.485Z,1008.49
2018-11-20T00:40:07.320Z,1008.44
2018-11-20T00:41:07.298Z,1008.44
2018-11-20T00:42:07.803Z,1008.43
2018-11-20T00:43:06.822Z,1008.44
2018-11-20T00:44:06.297Z,1008.43
2018-11-20T00:45:05.800Z,1008.33
2018-11-20T00:46:05.307Z,1008.34
2018-11-20T00:47:08.797Z,1008.27
2018-11-20T00:48:04.350Z,1008.30
2018-11-20T00:49:04.797Z,1008.30
2018-11-20T00:50:04.357Z,1008.25
2018-11-20T00:51:06.300Z,1008.31
2018-11-20T00:52:07.301Z,1008.26
2018-11-20T00:53:04.846Z,1008.28
2018-11-20T00:54:03.183Z,1008.23
2018-11-20T00:55:08.797Z,1008.24
2018-11-20T00:56:04.348Z,1008.29
2018-11-20T00:57:04.351Z,1008.26
2018-11-20T00:58:02.828Z,1008.24
2018-11-20T00:59:04.316Z,1008.20
2018-11-20T01:00:04.863Z,1008.12
2018-11-20T01:01:04.808Z,1008.20
2018-11-20T01:02:02.488Z,1008.21
2018-11-20T01:04:50.306Z,1008.18
2018-11-20T01:05:54.298Z,1008.14
2018-11-20T01:06:48.801Z,1008.06
2018-11-20T01:07:48.853Z,1008.18
2018-11-20T01:08:45.412Z,1008.17
2018-11-20T01:09:45.309Z,1008.15
2018-11-20T01:10:46.299Z,1008.08
2018-11-20T01:11:45.898Z,1008.13
2018-11-20T01:12:44.098Z,1008.07
2018-11-20T01:13:44.051Z,1008.14
2018-11-20T01:14:48.802Z,1008.06
2018-11-20T01:15:48.801Z,1008.04
2018-11-20T01:16:44.810Z,1008.07
2018-11-20T01:17:43.671Z,1008.00
2018-11-20T01:18:43.599Z,1008.02
2018-11-20T01:19:43.568Z,1007.96
2018-11-20T01:20:46.300Z,1008.01
2018-11-20T01:21:44.315Z,1008.05
2018-11-20T01:22:49.804Z,1007.88
2018-11-20T01:23:43.281Z,1007.99
2018-11-20T01:24:43.069Z,1008.02
2018-11-20T01:25:46.802Z,1007.97
2018-11-20T01:27:45.350Z,1007.93
2018-11-20T01:28:46.812Z,1007.92
2018-11-20T01:29:43.838Z,1007.95
2018-11-20T01:30:44.306Z,1007.97
2018-11-20T01:31:43.360Z,1007.88
2018-11-20T01:32:46.802Z,1007.93
2018-11-20T01:33:42.862Z,1007.83
2018-11-20T01:34:55.309Z,1007.89
2018-11-20T01:35:47.350Z,1007.76
2018-11-20T01:36:45.305Z,1007.85
2018-11-20T01:37:48.311Z,1007.83
2018-11-20T01:38:41.952Z,1007.79
2018-11-20T01:39:45.810Z,1007.81
2018-11-20T01:40:45.308Z,1007.73
2018-11-20T01:41:41.603Z,1007.70
2018-11-20T01:42:41.699Z,1007.74
2018-11-20T01:43:44.306Z,1007.71
2018-11-20T01:44:42.333Z,1007.72
2018-11-20T01:45:41.260Z,1007.73
2018-11-20T01:46:41.989Z,1007.68
2018-11-20T01:47:42.806Z,1007.72
2018-11-20T01:48:43.814Z,1007.67
2018-11-20T01:49:40.931Z,1007.76
2018-11-20T01:50:42.313Z,1007.68
2018-11-20T01:51:41.353Z,1007.75
2018-11-20T01:54:27.305Z,1007.64
2018-11-20T01:55:26.355Z,1007.63
2018-11-20T01:56:24.314Z,1007.58
2018-11-20T01:57:27.804Z,1007.65
2018-11-20T01:58:25.808Z,1007.66
2018-11-20T01:59:24.322Z,1007.57
2018-11-20T02:00:23.808Z,1007.58
2018-11-20T02:01:28.310Z,1007.66
2018-11-20T02:02:23.829Z,1007.58
2018-11-20T02:03:23.814Z,1007.62
2018-11-20T02:04:22.805Z,1007.64
2018-11-20T02:05:22.863Z,1007.54
2018-11-20T02:06:21.764Z,1007.58
2018-11-20T02:07:21.760Z,1007.62
2018-11-20T02:08:22.376Z,1007.53
2018-11-20T02:09:24.854Z,1007.48
2018-11-20T02:10:22.810Z,1007.47
2018-11-20T02:11:29.306Z,1007.43
2018-11-20T02:12:22.313Z,1007.37
2018-11-20T02:13:23.806Z,1007.43
2018-11-20T02:14:28.806Z,1007.40
2018-11-20T02:15:22.307Z,1007.42
2018-11-20T02:16:23.307Z,1007.35
2018-11-20T02:17:22.823Z,1007.34
2018-11-20T02:18:27.319Z,1007.35
2018-11-20T02:19:25.307Z,1007.35
2018-11-20T02:20:24.813Z,1007.41
2018-11-20T02:21:22.849Z,1007.32
2018-11-20T02:22:22.310Z,1007.31
2018-11-20T02:23:28.318Z,1007.34
2018-11-20T02:24:23.311Z,1007.25
2018-11-20T02:25:26.323Z,1007.21
2018-11-20T02:26:23.317Z,1007.40
2018-11-20T02:27:20.055Z,1007.30
2018-11-20T02:28:21.808Z,1007.26
2018-11-20T02:29:20.326Z,1007.28
2018-11-20T02:30:27.808Z,1007.29
2018-11-20T02:31:21.353Z,1007.24
2018-11-20T02:32:27.310Z,1007.36
2018-11-20T02:33:19.411Z,1007.21
2018-11-20T02:34:21.946Z,1007.20
2018-11-20T02:35:19.323Z,1007.23
2018-11-20T02:36:19.337Z,1007.27
2018-11-20T02:37:21.308Z,1007.20
2018-11-20T02:38:22.327Z,1007.26
2018-11-20T02:39:21.819Z,1007.24
2018-11-20T02:40:21.810Z,1007.26
2018-11-20T02:41:18.771Z,1007.25
2018-11-20T02:42:20.322Z,1007.25
2018-11-20T02:43:24.312Z,1007.24
2018-11-20T02:44:21.310Z,1007.26
2018-11-20T02:45:19.818Z,1007.28
2018-11-20T02:46:20.811Z,1007.25
2018-11-20T02:47:18.876Z,1007.28
2018-11-20T02:48:18.872Z,1007.25
2018-11-20T02:49:18.038Z,1007.26
2018-11-20T02:50:21.315Z,1007.25
2018-11-20T02:51:19.405Z,1007.30
2018-11-20T02:52:21.823Z,1007.25
2018-11-20T02:53:20.331Z,1007.23
2018-11-20T02:54:19.321Z,1007.20
2018-11-20T02:56:22.319Z,1007.13
2018-11-20T02:57:18.823Z,1007.20
2018-11-20T02:58:28.320Z,1007.21
2018-11-20T02:59:20.812Z,1007.09
2018-11-20T03:00:20.348Z,1007.08
2018-11-20T03:01:16.998Z,1007.07
2018-11-20T03:02:24.825Z,1007.12
2018-11-20T03:03:18.844Z,1007.05
2018-11-20T03:04:18.813Z,1007.05
2018-11-20T03:06:18.327Z,1007.11
2018-11-20T03:07:18.349Z,1007.04
2018-11-20T03:08:20.824Z,1007.00
2018-11-20T03:09:16.874Z,1007.02
2018-11-20T03:10:21.813Z,1007.05
2018-11-20T03:11:16.866Z,1007.05
2018-11-20T03:12:24.815Z,1007.06
2018-11-20T03:13:16.921Z,1007.07
2018-11-20T03:14:16.877Z,1007.05
2018-11-20T03:15:22.319Z,1007.03
2018-11-20T03:16:25.322Z,1007.10
2018-11-20T03:17:17.340Z,1007.10
2018-11-20T03:18:18.315Z,1007.07
2018-11-20T03:19:19.316Z,1007.07
2018-11-20T03:20:19.825Z,1007.09
2018-11-20T03:21:16.905Z,1007.08
2018-11-20T03:22:16.884Z,1007.08
2018-11-20T03:23:19.396Z,1007.07
2018-11-20T03:24:16.881Z,1007.09
2018-11-20T03:25:16.863Z,1007.10
2018-11-20T03:26:16.814Z,1007.08
2018-11-20T03:27:16.819Z,1007.11
2018-11-20T03:28:14.721Z,1007.10
2018-11-20T03:29:14.594Z,1006.96
2018-11-20T03:30:16.325Z,1007.02
2018-11-20T03:31:14.411Z,1007.03
2018-11-20T03:32:16.320Z,1007.00
2018-11-20T03:33:16.816Z,1006.97
2018-11-20T03:36:11.909Z,1006.91
2018-11-20T03:37:00.339Z,1006.89
2018-11-20T03:37:57.315Z,1006.82
2018-11-20T03:38:57.365Z,1006.80
2018-11-20T03:39:59.316Z,1006.81
2018-11-20T03:40:58.326Z,1006.83
2018-11-20T03:41:58.325Z,1006.75
2018-11-20T03:42:56.335Z,1006.79
2018-11-20T03:44:00.324Z,1006.68
2018-11-20T03:44:57.826Z,1006.70
2018-11-20T03:45:55.488Z,1006.73
2018-11-20T03:46:56.390Z,1006.72
2018-11-20T03:47:55.406Z,1006.78
2018-11-20T03:48:55.305Z,1006.68
2018-11-20T03:49:57.817Z,1006.68
2018-11-20T03:50:57.818Z,1006.67
2018-11-20T03:51:59.819Z,1006.68
2018-11-20T03:52:56.888Z,1006.66
2018-11-20T03:53:55.868Z,1006.62
2018-11-20T03:55:02.825Z,1006.69
2018-11-20T03:55:55.363Z,1006.61
2018-11-20T03:56:56.450Z,1006.58
2018-11-20T03:57:57.325Z,1006.57
2018-11-20T03:58:56.825Z,1006.61
2018-11-20T04:00:00.320Z,1006.61
2018-11-20T04:02:39.823Z,1006.57
2018-11-20T04:03:38.335Z,1006.52
2018-11-20T04:04:36.134Z,1006.55
2018-11-20T04:05:36.177Z,1006.51
2018-11-20T04:06:36.932Z,1006.46
2018-11-20T04:09:22.323Z,1006.42
2018-11-20T04:10:21.331Z,1006.40
2018-11-20T04:11:21.322Z,1006.35
2018-11-20T04:12:19.320Z,1006.36
2018-11-20T04:13:23.822Z,1006.36
2018-11-20T04:14:18.884Z,1006.29
2018-11-20T04:15:20.831Z,1006.29
2018-11-20T04:16:24.330Z,1006.34
2018-11-20T04:17:18.853Z,1006.28
2018-11-20T04:18:21.320Z,1006.35
2018-11-20T04:19:20.836Z,1006.35
2018-11-20T04:20:16.903Z,1006.33
2018-11-20T04:21:19.821Z,1006.31
2018-11-20T04:22:18.327Z,1006.36
2018-11-20T04:23:18.324Z,1006.29
2018-11-20T04:24:16.510Z,1006.32
2018-11-20T04:25:20.832Z,1006.31
2018-11-20T04:26:18.323Z,1006.31
2018-11-20T04:27:19.823Z,1006.27
2018-11-20T04:28:20.329Z,1006.28
2018-11-20T04:29:16.985Z,1006.29
2018-11-20T04:30:22.830Z,1006.29
2018-11-20T04:31:20.340Z,1006.29
2018-11-20T04:32:16.873Z,1006.28
2018-11-20T04:34:16.398Z,1006.27
2018-11-20T04:35:16.878Z,1006.25
2018-11-20T04:36:21.339Z,1006.27
2018-11-20T04:37:16.865Z,1006.20
2018-11-20T04:38:15.311Z,1006.20
2018-11-20T04:39:18.336Z,1006.17
2018-11-20T04:40:16.341Z,1006.15
2018-11-20T04:41:16.991Z,1006.17
2018-11-20T04:42:16.353Z,1006.16
2018-11-20T04:43:19.322Z,1006.17
2018-11-20T04:44:19.326Z,1006.13
2018-11-20T04:45:16.348Z,1006.17
2018-11-20T04:46:24.334Z,1006.12
2018-11-20T04:47:15.396Z,1006.17
2018-11-20T04:48:14.450Z,1006.15
2018-11-20T04:49:16.825Z,1006.08
2018-11-20T04:50:16.835Z,1006.12
2018-11-20T04:52:57.903Z,1006.10
2018-11-20T04:53:57.325Z,1006.12
2018-11-20T04:55:01.849Z,1006.16
2018-11-20T04:57:42.965Z,1006.15
2018-11-20T04:58:41.832Z,1006.08
2018-11-20T04:59:42.826Z,1006.09
2018-11-20T05:00:42.342Z,1006.07
2018-11-20T05:01:44.333Z,1006.07
2018-11-20T05:02:37.900Z,1006.12
2018-11-20T05:03:38.830Z,1006.13
2018-11-20T05:06:26.936Z,1006.14
2018-11-20T05:07:27.825Z,1006.22
2018-11-20T05:08:26.828Z,1006.16
2018-11-20T05:09:26.150Z,1006.20
2018-11-20T05:10:26.010Z,1006.13
2018-11-20T05:11:25.967Z,1006.14
2018-11-20T05:12:26.827Z,1006.21
2018-11-20T05:13:25.897Z,1006.08
2018-11-20T05:14:25.624Z,1006.13
2018-11-20T05:17:07.852Z,1006.10
2018-11-20T05:18:07.772Z,1006.11
2018-11-20T05:19:07.668Z,1006.13
2018-11-20T05:20:08.379Z,1006.14
2018-11-20T05:21:09.845Z,1006.05
2018-11-20T05:22:07.500Z,1006.08
2018-11-20T05:23:07.903Z,1006.08
2018-11-20T05:24:08.828Z,1006.12
2018-11-20T05:25:07.900Z,1006.06
2018-11-20T05:26:07.941Z,1006.04
2018-11-20T05:27:11.352Z,1006.00
2018-11-20T05:28:08.888Z,1006.00
2018-11-20T05:29:14.355Z,1005.94
2018-11-20T05:30:07.367Z,1005.92
2018-11-20T05:31:11.453Z,1005.95
2018-11-20T05:32:06.596Z,1006.02
2018-11-20T05:33:07.894Z,1005.99
2018-11-20T05:34:08.339Z,1005.99
2018-11-20T05:35:13.837Z,1006.03
2018-11-20T05:36:06.895Z,1006.00
2018-11-20T05:37:08.848Z,1006.03
2018-11-20T05:38:06.027Z,1006.03
2018-11-20T05:41:14.389Z,1006.07
2018-11-20T05:42:14.433Z,1006.12
2018-11-20T05:44:55.846Z,1006.09
2018-11-20T05:45:56.374Z,1006.09
2018-11-20T05:47:00.939Z,1006.10
2018-11-20T05:47:57.389Z,1006.14
2018-11-20T05:48:55.475Z,1006.13
2018-11-20T05:49:55.508Z,1006.09
2018-11-20T05:50:55.333Z,1006.09
2018-11-20T05:51:55.312Z,1006.09
2018-11-20T05:52:55.849Z,1006.06
2018-11-20T05:53:55.833Z,1006.05
2018-11-20T05:54:56.340Z,1006.04
2018-11-20T05:55:57.342Z,1006.01
2018-11-20T05:56:55.368Z,1006.03
2018-11-20T05:57:55.385Z,1006.08
2018-11-20T05:58:55.371Z,1005.99
2018-11-20T05:59:54.638Z,1005.97
2018-11-20T06:00:55.345Z,1005.93
2018-11-20T06:01:55.342Z,1005.86
2018-11-20T06:02:57.833Z,1005.90
2018-11-20T06:03:54.839Z,1005.93
2018-11-20T06:04:54.133Z,1005.88
2018-11-20T06:05:54.115Z,1005.95
2018-11-20T06:06:55.834Z,1005.91
2018-11-20T06:07:58.345Z,1005.90
2018-11-20T06:08:55.835Z,1005.94
2018-11-20T06:09:54.769Z,1005.92
2018-11-20T06:10:57.343Z,1005.87
2018-11-20T06:11:54.334Z,1005.89
2018-11-20T06:12:53.528Z,1005.83
2018-11-20T06:15:38.345Z,1005.90
2018-11-20T06:18:22.868Z,1005.88
2018-11-20T06:19:19.845Z,1005.86
2018-11-20T06:20:20.338Z,1005.82
2018-11-20T06:21:17.114Z,1005.84
2018-11-20T06:22:19.847Z,1005.83
2018-11-20T06:23:17.845Z,1005.80
2018-11-20T06:24:17.857Z,1005.85
2018-11-20T06:25:16.868Z,1005.84
2018-11-20T06:26:17.423Z,1005.88
2018-11-20T06:27:22.352Z,1005.80
2018-11-20T06:28:18.838Z,1005.75
2018-11-20T06:29:16.414Z,1005.78
2018-11-20T06:30:17.861Z,1005.77
2018-11-20T06:31:16.266Z,1005.79
2018-11-20T06:32:18.852Z,1005.76
2018-11-20T06:34:59.899Z,1005.76
2018-11-20T06:36:00.861Z,1005.77
2018-11-20T06:36:58.151Z,1005.80
2018-11-20T06:39:40.881Z,1005.91
2018-11-20T06:40:41.403Z,1005.89
2018-11-20T06:41:40.245Z,1005.85
2018-11-20T06:42:40.848Z,1005.84
2018-11-20T06:43:40.856Z,1005.89
2018-11-20T06:44:40.903Z,1005.80
2018-11-20T06:45:40.846Z,1005.76
2018-11-20T06:46:44.340Z,1005.78
2018-11-20T06:47:42.342Z,1005.80
2018-11-20T06:50:22.840Z,1005.87
2018-11-20T06:51:22.388Z,1005.88
2018-11-20T06:52:24.499Z,1005.90
2018-11-20T06:53:22.488Z,1005.91
2018-11-20T06:54:22.889Z,1005.86
2018-11-20T06:55:23.840Z,1005.86
2018-11-20T06:56:21.891Z,1005.83
2018-11-20T07:00:30.346Z,1005.87
2018-11-20T07:01:29.468Z,1005.85
2018-11-20T07:02:29.396Z,1005.86
2018-11-20T07:03:30.369Z,1005.84
2018-11-20T07:04:27.494Z,1005.86
2018-11-20T07:05:31.341Z,1005.83
2018-11-20T07:07:30.972Z,1005.83
2018-11-20T07:08:27.951Z,1005.89
2018-11-20T07:09:27.865Z,1005.83
2018-11-20T07:10:28.342Z,1005.83
2018-11-20T07:11:27.462Z,1005.79
2018-11-20T07:12:31.842Z,1005.84
2018-11-20T07:13:27.434Z,1005.77
2018-11-20T07:14:27.426Z,1005.77
2018-11-20T07:15:30.538Z,1005.82
2018-11-20T07:16:26.495Z,1005.80
2018-11-20T07:17:27.387Z,1005.77
2018-11-20T07:18:26.898Z,1005.78
2018-11-20T07:19:29.843Z,1005.83
2018-11-20T07:20:28.398Z,1005.86
2018-11-20T07:23:09.855Z,1005.79
2018-11-20T07:24:29.851Z,1005.73
2018-11-20T07:25:09.842Z,1005.80
2018-11-20T07:28:10.850Z,1005.88
2018-11-20T07:28:53.842Z,1005.85
2018-11-20T07:29:53.918Z,1005.84
2018-11-20T07:30:52.453Z,1005.86
2018-11-20T07:31:55.380Z,1005.89
2018-11-20T07:32:52.853Z,1005.89
2018-11-20T07:51:35.149Z,1005.68
2018-11-20T07:52:38.914Z,1005.69
2018-11-20T07:53:30.899Z,1005.69
2018-11-20T07:54:51.857Z,1005.67
2018-11-20T07:55:38.433Z,1005.66
2018-11-20T07:56:58.409Z,1005.66
2018-11-20T07:58:53.427Z,1005.63
2018-11-20T08:00:56.407Z,1005.59
2018-11-20T08:02:30.412Z,1005.63
2018-11-20T08:04:30.858Z,1005.54
2018-11-20T08:08:58.011Z,1005.57
2018-11-20T08:12:40.324Z,1005.54
2018-11-20T08:15:48.875Z,1005.45
2018-11-20T08:17:57.285Z,1005.46
2018-11-20T08:20:28.212Z,1005.43
2018-11-20T08:22:28.211Z,1005.40
2018-11-20T08:23:28.703Z,1005.40
2018-11-20T08:24:43.703Z,1005.38
2018-11-20T08:25:30.295Z,1005.36
2018-11-20T08:26:33.223Z,1005.39
2018-11-20T08:27:38.702Z,1005.37
2018-11-20T08:28:26.703Z,1005.36
2018-11-20T08:29:25.720Z,1005.35
2018-11-20T08:30:45.226Z,1005.38
2018-11-20T08:31:27.710Z,1005.33
2018-11-20T08:33:26.735Z,1005.43
2018-11-20T08:34:47.214Z,1005.43
2018-11-20T08:35:27.713Z,1005.40
2018-11-20T08:36:28.207Z,1005.42
2018-11-20T08:37:41.714Z,1005.41
2018-11-20T08:39:36.729Z,1005.31
2018-11-20T08:40:23.985Z,1005.41
2018-11-20T08:41:32.724Z,1005.42
2018-11-20T08:42:26.872Z,1005.40
2018-11-20T08:43:33.205Z,1005.32
2018-11-20T08:44:24.706Z,1005.40
2018-11-20T08:47:26.204Z,1005.42
2018-11-20T08:48:26.805Z,1005.37
2018-11-20T08:49:23.288Z,1005.42
2018-11-20T08:50:25.855Z,1005.42
2018-11-20T08:51:27.722Z,1005.50
2018-11-20T08:54:22.795Z,1005.46
2018-11-20T08:55:25.261Z,1005.43
2018-11-20T08:56:28.226Z,1005.41
2018-11-20T08:57:22.545Z,1005.42
2018-11-20T08:59:22.368Z,1005.36
2018-11-20T09:00:29.235Z,1005.35
2018-11-20T09:01:27.706Z,1005.27
2018-11-20T09:02:24.748Z,1005.34
2018-11-20T09:04:23.708Z,1005.36
2018-11-20T09:05:25.718Z,1005.33
2018-11-20T09:06:27.709Z,1005.37
2018-11-20T09:07:23.724Z,1005.35
2018-11-20T09:08:21.622Z,1005.38
2018-11-20T09:09:21.534Z,1005.37
2018-11-20T09:10:21.512Z,1005.39
2018-11-20T09:11:21.340Z,1005.41
2018-11-20T09:14:03.185Z,1005.41
2018-11-20T09:15:03.122Z,1005.35
2018-11-20T09:16:03.014Z,1005.42
2018-11-20T09:17:02.965Z,1005.46
2018-11-20T09:18:03.000Z,1005.46
2018-11-20T09:19:02.764Z,1005.45
2018-11-20T09:20:02.747Z,1005.49
2018-11-20T09:21:02.605Z,1005.44
2018-11-20T09:22:02.493Z,1005.42
2018-11-20T09:24:44.698Z,1005.40
2018-11-20T09:25:44.695Z,1005.39
2018-11-20T09:26:44.519Z,1005.42
2018-11-20T09:29:26.688Z,1005.43
2018-11-20T09:30:26.647Z,1005.33
2018-11-20T09:31:26.564Z,1005.40
2018-11-20T09:32:28.419Z,1005.35
2018-11-20T09:33:26.352Z,1005.31
2018-11-20T09:34:26.325Z,1005.40
2018-11-20T09:35:26.386Z,1005.38
2018-11-20T09:36:26.141Z,1005.30
2018-11-20T09:37:26.005Z,1005.33
2018-11-20T09:54:06.320Z,1005.34
2018-11-20T09:55:06.197Z,1005.29
2018-11-20T09:56:06.105Z,1005.25
2018-11-20T09:57:06.050Z,1005.29
2018-11-20T09:58:05.942Z,1005.29
2018-11-20T09:59:05.854Z,1005.23
2018-11-20T10:01:47.796Z,1005.25
2018-11-20T10:02:47.613Z,1005.32
2018-11-20T10:03:47.595Z,1005.27
2018-11-20T10:04:47.432Z,1005.33
2018-11-20T10:05:47.365Z,1005.22
2018-11-20T10:06:47.364Z,1005.19
2018-11-20T10:07:47.175Z,1005.26
2018-11-20T10:08:47.144Z,1005.26
2018-11-20T10:09:47.023Z,1005.28
2018-11-20T10:10:46.926Z,1005.23
2018-11-20T10:11:46.852Z,1005.26
2018-11-20T10:12:46.794Z,1005.29
2018-11-20T10:13:46.724Z,1005.23
2018-11-20T10:14:46.744Z,1005.29
2018-11-20T10:15:46.508Z,1005.29
2018-11-20T10:16:46.439Z,1005.20
2018-11-20T10:17:46.392Z,1005.24
2018-11-20T10:20:28.209Z,1005.24
2018-11-20T10:21:28.152Z,1005.20
2018-11-20T10:22:28.068Z,1005.21
2018-11-20T10:23:27.950Z,1005.13
2018-11-20T10:24:27.890Z,1005.19
2018-11-20T10:25:27.833Z,1005.14
2018-11-20T10:26:27.727Z,1005.08
2018-11-20T10:27:27.612Z,1005.10
2018-11-20T10:28:27.574Z,1005.06
2018-11-20T10:31:09.802Z,1005.04
2018-11-20T10:32:09.639Z,1005.06
2018-11-20T10:33:09.912Z,1005.00
2018-11-20T10:34:10.047Z,1005.00
2018-11-20T10:35:09.351Z,1005.03
2018-11-20T10:37:51.211Z,1004.95
2018-11-20T10:40:46.226Z,1004.94
2018-11-20T10:41:45.119Z,1004.93
2018-11-20T10:42:45.034Z,1004.89
2018-11-20T10:43:44.964Z,1004.91
2018-11-20T10:44:44.895Z,1004.90
2018-11-20T10:45:44.783Z,1004.92
2018-11-20T10:48:26.706Z,1004.89
2018-11-20T10:49:28.222Z,1004.83
2018-11-20T10:50:26.540Z,1004.86
2018-11-20T10:51:26.457Z,1004.85
2018-11-20T10:52:26.629Z,1004.83
2018-11-20T10:55:08.739Z,1004.81
2018-11-20T10:56:08.616Z,1004.85
2018-11-20T10:57:08.532Z,1004.79
2018-11-20T10:58:08.457Z,1004.76
2018-11-20T10:59:09.323Z,1004.74
2018-11-20T11:00:08.318Z,1004.76
2018-11-20T11:01:08.261Z,1004.73
2018-11-20T11:02:08.133Z,1004.73
2018-11-20T11:03:08.025Z,1004.74
2018-11-20T11:04:07.942Z,1004.78
2018-11-20T11:05:08.117Z,1004.77
2018-11-20T11:06:07.882Z,1004.77
2018-11-20T11:07:07.961Z,1004.79
2018-11-20T11:08:07.626Z,1004.75
2018-11-20T11:09:07.504Z,1004.74
2018-11-20T11:10:07.468Z,1004.73
2018-11-20T11:11:07.357Z,1004.72
2018-11-20T11:12:07.848Z,1004.75
2018-11-20T11:13:07.207Z,1004.69
2018-11-20T11:14:07.110Z,1004.71
2018-11-20T11:15:06.996Z,1004.70
2018-11-20T11:16:06.946Z,1004.67
2018-11-20T11:17:06.821Z,1004.60
2018-11-20T11:18:06.746Z,1004.57
2018-11-20T11:19:06.653Z,1004.56
2018-11-20T11:20:06.576Z,1004.55
2018-11-20T11:21:06.607Z,1004.51
2018-11-20T11:22:06.450Z,1004.54
2018-11-20T11:23:06.318Z,1004.56
2018-11-20T11:24:06.252Z,1004.57
2018-11-20T11:25:06.149Z,1004.48
2018-11-20T11:26:06.150Z,1004.51
2018-11-20T11:27:06.019Z,1004.51
2018-11-20T11:29:48.199Z,1004.53
2018-11-20T11:31:09.101Z,1004.53
2018-11-20T11:31:48.058Z,1004.58
2018-11-20T11:32:47.965Z,1004.57
2018-11-20T11:33:47.861Z,1004.52
2018-11-20T11:34:47.791Z,1004.46
2018-11-20T11:58:09.770Z,1004.35
2018-11-20T11:59:09.650Z,1004.33
2018-11-20T12:00:09.571Z,1004.39
2018-11-20T12:01:09.449Z,1004.37
2018-11-20T12:05:12.240Z,1004.33
2018-11-20T12:06:12.191Z,1004.34
2018-11-20T12:07:12.071Z,1004.36
2018-11-20T12:08:11.960Z,1004.33
2018-11-20T12:09:11.919Z,1004.32
2018-11-20T12:10:11.822Z,1004.30
2018-11-20T12:11:11.700Z,1004.26
2018-11-20T12:12:11.629Z,1004.18
2018-11-20T12:13:32.523Z,1004.20
2018-11-20T12:14:11.460Z,1004.22
2018-11-20T12:15:11.403Z,1004.20
2018-11-20T12:16:11.317Z,1004.16
2018-11-20T12:17:11.220Z,1004.16
2018-11-20T12:18:11.105Z,1004.15
2018-11-20T12:20:53.242Z,1004.11
2018-11-20T12:21:53.192Z,1004.08
2018-11-20T12:22:53.075Z,1004.03
2018-11-20T12:23:52.969Z,1004.05
2018-11-20T12:24:52.874Z,1004.00
2018-11-20T12:29:58.720Z,1004.09
2018-11-20T12:30:58.629Z,1004.07
2018-11-20T12:31:58.600Z,1004.09
2018-11-20T12:32:58.475Z,1004.07
2018-11-20T12:35:40.733Z,1004.06
2018-11-20T12:36:40.632Z,1004.08
2018-11-20T12:37:43.235Z,1004.07
2018-11-20T12:38:41.402Z,1004.08
2018-11-20T12:39:40.831Z,1004.15
2018-11-20T12:40:40.318Z,1004.08
2018-11-20T12:41:40.208Z,1004.14
2018-11-20T12:42:41.006Z,1004.12
2018-11-20T12:49:17.039Z,1004.05
2018-11-20T12:50:14.970Z,1004.05
2018-11-20T12:51:14.896Z,1004.08
2018-11-20T12:52:14.805Z,1004.06
2018-11-20T12:53:14.788Z,1003.98
2018-11-20T12:54:15.090Z,1004.01
2018-11-20T12:55:14.551Z,1003.92
2018-11-20T12:56:14.475Z,1003.99
2018-11-20T12:57:14.402Z,1004.01
2018-11-20T12:58:14.334Z,1004.00
2018-11-20T12:59:15.239Z,1004.00
2018-11-20T13:00:14.125Z,1003.98
2018-11-20T13:01:15.019Z,1003.96
2018-11-20T13:02:15.168Z,1003.95
2018-11-20T13:03:13.905Z,1003.96
2018-11-20T13:04:13.803Z,1003.89
2018-11-20T13:05:13.738Z,1003.92
2018-11-20T13:06:13.612Z,1003.92
2018-11-20T13:08:55.769Z,1003.91
2018-11-20T13:09:55.652Z,1003.89
2018-11-20T13:10:55.559Z,1003.94
2018-11-20T13:11:55.479Z,1003.92
2018-11-20T13:12:56.550Z,1004.02
2018-11-20T13:13:56.561Z,1004.00
2018-11-20T13:14:56.594Z,1003.96
2018-11-20T13:15:56.618Z,1003.91
2018-11-20T13:16:55.046Z,1003.92
2018-11-20T13:17:54.973Z,1003.92
2018-11-20T13:18:54.923Z,1003.99
2018-11-20T13:19:54.803Z,1003.94
2018-11-20T13:20:54.698Z,1003.96
2018-11-20T13:21:54.656Z,1003.90
2018-11-20T13:22:55.716Z,1003.89
2018-11-20T13:23:54.480Z,1003.89
2018-11-20T13:24:57.929Z,1003.89
2018-11-20T13:25:55.308Z,1003.92
2018-11-20T13:26:54.197Z,1003.89
2018-11-20T13:27:54.134Z,1003.88
2018-11-20T13:28:54.016Z,1003.90
2018-11-20T13:29:54.002Z,1003.94
2018-11-20T13:30:53.960Z,1003.98
2018-11-20T13:33:35.736Z,1003.96
2018-11-20T13:34:57.682Z,1003.90
2018-11-20T13:35:35.611Z,1003.92
2018-11-20T13:36:35.479Z,1003.89
2018-11-20T13:37:56.380Z,1003.87
2018-11-20T13:38:35.337Z,1003.88
2018-11-20T13:39:35.244Z,1003.90
2018-11-20T13:40:35.141Z,1003.91
2018-11-20T13:41:35.077Z,1003.84
2018-11-20T13:42:35.811Z,1003.91
2018-11-20T13:43:34.896Z,1003.81
2018-11-20T13:45:59.263Z,1003.77
2018-11-20T13:46:59.169Z,1003.83
2018-11-20T13:47:59.812Z,1003.78
2018-11-20T13:51:40.759Z,1003.74
2018-11-20T13:52:41.691Z,1003.72
2018-11-20T13:53:42.254Z,1003.69
2018-11-20T13:54:40.500Z,1003.75
2018-11-20T13:55:40.392Z,1003.77
2018-11-20T13:58:22.273Z,1003.70
2018-11-20T14:02:04.188Z,1003.68
2018-11-20T14:03:04.062Z,1003.67
2018-11-20T14:04:04.012Z,1003.70
2018-11-20T14:05:03.912Z,1003.68
2018-11-20T14:06:03.809Z,1003.70
2018-11-20T14:07:03.722Z,1003.69
2018-11-20T14:08:03.682Z,1003.60
2018-11-20T14:09:06.266Z,1003.65
2018-11-20T14:11:45.752Z,1003.60
2018-11-20T14:12:45.682Z,1003.62
2018-11-20T14:13:45.654Z,1003.61
2018-11-20T14:14:45.510Z,1003.63
2018-11-20T14:15:45.407Z,1003.56
2018-11-20T14:16:45.353Z,1003.57
2018-11-20T14:17:45.275Z,1003.60
2018-11-20T14:18:45.171Z,1003.58
2018-11-20T14:19:45.067Z,1003.51
2018-11-20T14:20:44.998Z,1003.53
2018-11-20T14:21:44.915Z,1003.50
2018-11-20T14:22:45.829Z,1003.47
2018-11-20T14:23:45.312Z,1003.46
2018-11-20T14:26:26.765Z,1003.47
2018-11-20T14:27:26.663Z,1003.46
2018-11-20T14:28:26.588Z,1003.50
2018-11-20T14:29:27.544Z,1003.46
2018-11-20T14:30:26.403Z,1003.48
2018-11-20T14:31:26.334Z,1003.48
2018-11-20T14:32:26.281Z,1003.48
2018-11-20T14:33:26.156Z,1003.43
2018-11-20T14:34:26.070Z,1003.41
2018-11-20T14:38:12.235Z,1003.43
2018-11-20T14:39:33.188Z,1003.48
2018-11-20T14:40:12.070Z,1003.44
2018-11-20T14:42:54.248Z,1003.44
2018-11-20T14:45:36.284Z,1003.47
2018-11-20T15:11:15.941Z,1003.47
2018-11-20T15:12:15.703Z,1003.44
2018-11-20T15:13:15.596Z,1003.44
2018-11-20T15:14:15.524Z,1003.44
2018-11-20T15:15:15.472Z,1003.45
2018-11-20T15:16:15.401Z,1003.48
2018-11-20T15:17:15.274Z,1003.46
2018-11-20T15:18:15.194Z,1003.45
2018-11-20T15:19:15.075Z,1003.51
2018-11-20T15:20:15.008Z,1003.51
2018-11-20T15:21:14.909Z,1003.49
2018-11-20T15:22:15.855Z,1003.53
2018-11-20T15:23:14.729Z,1003.53
2018-11-20T15:24:14.667Z,1003.56
2018-11-20T15:25:14.560Z,1003.54